Time;durP1;ratioP1;P1;durP2;ratioP2;P2;SDS_P1;SDS_P2;PMS_P1;PMS_P2;Temp;Humidity;BMP_temperature;BMP_pressure;BME280_temperature;BME280_humidity;BME280_pressure;Samples;Min_cycle;Max_cycle;Signal;HPM_P1;HPM_P2
2021/05/14 00:00:40;;;;;;;3.67;1.33;;;19.80;47.90;;;;;;5093301;28;20036;-67
2021/05/14 00:03:05;;;;;;;3.47;1.52;;;19.80;48.00;;;;;;5093585;28;20028;-66
2021/05/14 00:05:34;;;;;;;3.72;1.50;;;19.80;47.90;;;;;;5096742;28;20514;-65
2021/05/14 00:07:59;;;;;;;3.35;1.50;;;19.70;47.90;;;;;;5093706;28;20024;-66
2021/05/14 00:10:25;;;;;;;3.70;1.63;;;19.80;48.10;;;;;;5093620;28;20043;-65
2021/05/14 00:12:51;;;;;;;2.22;1.15;;;19.80;48.00;;;;;;5093845;28;20077;-66
2021/05/14 00:15:18;;;;;;;3.25;1.63;;;19.80;47.90;;;;;;5093346;28;20039;-66
2021/05/14 00:17:44;;;;;;;2.80;1.52;;;19.70;47.90;;;;;;5093565;28;20036;-67
2021/05/14 00:20:10;;;;;;;3.58;1.60;;;19.80;48.00;;;;;;5093151;28;20020;-66
2021/05/14 00:22:36;;;;;;;3.42;1.70;;;19.80;47.90;;;;;;5093291;28;20024;-66
2021/05/14 00:25:03;;;;;;;4.05;1.73;;;19.80;47.90;;;;;;5093196;28;20518;-66
2021/05/14 00:27:29;;;;;;;3.55;1.75;;;19.80;47.90;;;;;;5093287;28;20060;-66
2021/05/14 00:29:54;;;;;;;2.97;1.45;;;19.70;47.90;;;;;;5093528;28;20035;-66
2021/05/14 00:32:20;;;;;;;4.10;2.13;;;19.70;47.90;;;;;;5093330;28;20052;-65
2021/05/14 00:34:45;;;;;;;4.28;1.85;;;19.70;47.90;;;;;;5093384;28;20067;-66
2021/05/14 00:37:11;;;;;;;4.82;1.80;;;19.70;47.90;;;;;;5093282;28;20039;-66
2021/05/14 00:39:36;;;;;;;4.63;2.00;;;19.70;47.90;;;;;;5092848;28;20472;-66
2021/05/14 00:42:02;;;;;;;3.58;1.70;;;19.70;48.00;;;;;;5093063;28;20074;-66
2021/05/14 00:44:29;;;;;;;4.93;2.00;;;19.70;48.00;;;;;;5093290;28;20391;-66
2021/05/14 00:46:56;;;;;;;4.40;2.20;;;19.70;48.00;;;;;;5093178;28;20082;-65
2021/05/14 00:49:23;;;;;;;4.35;2.25;;;19.70;48.10;;;;;;5093274;28;20361;-65
2021/05/14 00:51:49;;;;;;;5.38;2.08;;;19.70;48.10;;;;;;5093533;28;20024;-66
2021/05/14 00:54:15;;;;;;;4.30;1.80;;;19.70;48.10;;;;;;5093181;28;20481;-66
2021/05/14 00:56:41;;;;;;;4.28;1.95;;;19.70;48.10;;;;;;5093346;28;20028;-66
2021/05/14 00:59:07;;;;;;;4.25;2.03;;;19.70;48.10;;;;;;5093084;28;20024;-66
2021/05/14 01:01:32;;;;;;;5.13;2.25;;;19.70;48.00;;;;;;5092972;28;20036;-66
2021/05/14 01:03:58;;;;;;;3.65;1.95;;;19.70;48.10;;;;;;5093172;28;20030;-66
2021/05/14 01:06:24;;;;;;;3.53;1.90;;;19.60;48.10;;;;;;5095293;28;20085;-66
2021/05/14 01:08:49;;;;;;;5.15;2.30;;;19.70;48.10;;;;;;5096477;28;20105;-67
2021/05/14 01:11:15;;;;;;;5.00;2.30;;;19.70;48.10;;;;;;5101326;28;20024;-66
2021/05/14 01:13:40;;;;;;;4.57;2.17;;;19.60;48.10;;;;;;5098678;28;20035;-66
2021/05/14 01:16:07;;;;;;;5.63;2.13;;;19.60;48.10;;;;;;5096432;28;20054;-66
2021/05/14 01:18:32;;;;;;;4.18;1.95;;;19.60;48.10;;;;;;5096314;28;20479;-65
2021/05/14 01:20:58;;;;;;;4.40;2.20;;;19.60;48.10;;;;;;5096184;28;20043;-66
2021/05/14 01:23:23;;;;;;;4.85;2.22;;;19.60;48.10;;;;;;5096506;28;20498;-66
2021/05/14 01:25:49;;;;;;;3.58;2.00;;;19.60;48.20;;;;;;5096210;28;20077;-66
2021/05/14 01:28:15;;;;;;;4.15;2.10;;;19.60;48.20;;;;;;5096115;28;20055;-66
2021/05/14 01:30:43;;;;;;;5.10;2.25;;;19.60;48.30;;;;;;5096333;28;20051;-66
2021/05/14 01:33:09;;;;;;;4.28;2.17;;;19.60;48.20;;;;;;5096456;28;20026;-66
2021/05/14 01:35:34;;;;;;;5.13;2.22;;;19.60;48.20;;;;;;5096224;28;20105;-66
2021/05/14 01:38:00;;;;;;;4.30;2.08;;;19.60;48.20;;;;;;5096153;28;20108;-66
2021/05/14 01:40:26;;;;;;;5.50;2.65;;;19.60;48.20;;;;;;5095948;28;20027;-66
2021/05/14 01:42:51;;;;;;;4.72;2.30;;;19.60;48.20;;;;;;5096301;28;20436;-66
2021/05/14 01:45:17;;;;;;;5.20;2.50;;;19.60;48.20;;;;;;5096202;28;20448;-65
2021/05/14 01:47:43;;;;;;;5.75;2.00;;;19.60;48.30;;;;;;5095953;28;20274;-66
2021/05/14 01:50:09;;;;;;;4.47;2.22;;;19.60;48.30;;;;;;5096298;28;20032;-66
2021/05/14 01:52:35;;;;;;;4.47;2.15;;;19.60;48.30;;;;;;5096214;28;20024;-66
2021/05/14 01:55:01;;;;;;;5.10;2.30;;;19.60;48.30;;;;;;5095659;28;20075;-66
2021/05/14 01:57:30;;;;;;;5.22;2.55;;;19.50;48.30;;;;;;5095614;28;20028;-66
2021/05/14 01:59:56;;;;;;;4.30;2.20;;;19.60;48.30;;;;;;5095332;28;20045;-66
2021/05/14 02:02:22;;;;;;;4.57;2.40;;;19.60;48.30;;;;;;5095465;28;20082;-66
2021/05/14 02:04:48;;;;;;;4.85;2.58;;;19.60;48.30;;;;;;5095573;28;20020;-66
2021/05/14 02:07:14;;;;;;;5.25;2.63;;;19.50;48.30;;;;;;5095350;28;20467;-66
2021/05/14 02:09:39;;;;;;;4.63;2.28;;;19.50;48.30;;;;;;5095442;28;20028;-64
2021/05/14 02:12:06;;;;;;;5.05;2.50;;;19.50;48.30;;;;;;5095549;28;20491;-66
2021/05/14 02:14:32;;;;;;;4.38;2.45;;;19.50;48.30;;;;;;5095164;28;20383;-65
2021/05/14 02:16:57;;;;;;;5.10;2.65;;;19.50;48.40;;;;;;5094481;28;20099;-65
2021/05/14 02:19:23;;;;;;;3.75;2.25;;;19.50;48.40;;;;;;5095552;28;20468;-66
2021/05/14 02:21:49;;;;;;;5.32;2.50;;;19.50;48.40;;;;;;5095250;28;20124;-67
2021/05/14 02:24:14;;;;;;;5.13;2.58;;;19.50;48.50;;;;;;5095229;28;20127;-64
2021/05/14 02:26:40;;;;;;;5.15;2.58;;;19.50;48.60;;;;;;5095044;28;20024;-65
2021/05/14 02:29:05;;;;;;;5.72;2.63;;;19.50;48.50;;;;;;5095148;28;20024;-64
2021/05/14 02:31:31;;;;;;;5.38;2.35;;;19.50;48.50;;;;;;5095212;28;20028;-65
2021/05/14 02:33:56;;;;;;;5.45;2.40;;;19.50;48.60;;;;;;5094954;28;20388;-66
2021/05/14 02:36:23;;;;;;;4.70;2.30;;;19.50;48.50;;;;;;5095072;28;20472;-66
2021/05/14 02:38:48;;;;;;;5.00;2.38;;;19.50;48.60;;;;;;5094894;28;20024;-66
2021/05/14 02:41:14;;;;;;;6.50;2.50;;;19.50;48.60;;;;;;5094803;28;20043;-66
2021/05/14 02:43:40;;;;;;;6.63;2.70;;;19.50;48.80;;;;;;5094770;28;20027;-66
2021/05/14 02:46:06;;;;;;;5.80;2.60;;;19.50;48.70;;;;;;5094701;28;20085;-66
2021/05/14 02:48:32;;;;;;;5.78;2.58;;;19.50;48.60;;;;;;5095340;28;20028;-66
2021/05/14 02:50:58;;;;;;;5.28;2.67;;;19.50;48.60;;;;;;5094650;28;20024;-65
2021/05/14 02:53:23;;;;;;;5.00;2.55;;;19.50;48.50;;;;;;5094782;28;20028;-64
2021/05/14 02:55:49;;;;;;;4.72;2.53;;;19.50;48.60;;;;;;5094982;28;20027;-64
2021/05/14 02:58:14;;;;;;;5.47;2.55;;;19.50;48.60;;;;;;5094679;28;20464;-64
2021/05/14 03:00:40;;;;;;;6.53;3.00;;;19.50;48.50;;;;;;5094820;28;20028;-64
2021/05/14 03:03:06;;;;;;;4.90;2.58;;;19.50;48.60;;;;;;5095240;28;20036;-65
2021/05/14 03:05:32;;;;;;;5.35;2.38;;;19.50;48.70;;;;;;5094897;28;20016;-66
2021/05/14 03:07:57;;;;;;;4.90;2.38;;;19.50;48.70;;;;;;5094455;28;20072;-65
2021/05/14 03:10:23;;;;;;;4.97;2.53;;;19.50;48.70;;;;;;5094291;28;20509;-65
2021/05/14 03:12:49;;;;;;;4.50;2.40;;;19.50;48.70;;;;;;5094136;28;20153;-65
2021/05/14 03:15:15;;;;;;;5.47;2.60;;;19.50;48.70;;;;;;5094496;28;20546;-65
2021/05/14 03:17:40;;;;;;;5.13;2.70;;;19.50;48.80;;;;;;5094254;28;20556;-66
2021/05/14 03:20:07;;;;;;;5.93;3.00;;;19.50;48.70;;;;;;5094132;28;20024;-65
2021/05/14 03:22:33;;;;;;;5.88;2.65;;;19.50;48.70;;;;;;5093127;28;20052;-64
2021/05/14 03:24:59;;;;;;;4.70;2.53;;;19.50;48.80;;;;;;5094298;28;20329;-65
2021/05/14 03:27:24;;;;;;;4.75;2.45;;;19.50;48.90;;;;;;5094198;28;20035;-65
2021/05/14 03:29:50;;;;;;;5.30;2.70;;;19.50;48.90;;;;;;5092588;28;20533;-65
2021/05/14 03:32:15;;;;;;;5.38;2.97;;;19.40;48.80;;;;;;5094124;28;20032;-65
2021/05/14 03:34:41;;;;;;;5.63;3.15;;;19.50;48.90;;;;;;5093971;28;20017;-66
2021/05/14 03:37:06;;;;;;;4.63;2.35;;;19.40;48.80;;;;;;5094221;28;20089;-65
2021/05/14 03:39:38;;;;;;;8.23;2.95;;;19.40;48.80;;;;;;5094045;28;20028;-65
2021/05/14 03:44:38;;;;;;;4.80;2.30;;;19.40;48.80;;;;;;5094044;28;20028;-65
2021/05/14 03:47:04;;;;;;;4.95;2.58;;;19.40;48.80;;;;;;5094385;28;20073;-65
2021/05/14 03:49:30;;;;;;;5.15;2.47;;;19.40;48.70;;;;;;5094236;28;20063;-66
2021/05/14 03:51:56;;;;;;;4.75;2.20;;;19.40;48.80;;;;;;5093522;28;20118;-65
2021/05/14 03:54:22;;;;;;;5.70;2.55;;;19.40;48.80;;;;;;5093895;28;20035;-66
2021/05/14 03:56:48;;;;;;;4.30;2.30;;;19.40;48.80;;;;;;5093903;28;20032;-65
2021/05/14 03:59:15;;;;;;;4.75;2.53;;;19.40;48.70;;;;;;5093824;28;20094;-66
2021/05/14 04:01:41;;;;;;;4.90;2.50;;;19.40;48.80;;;;;;5094825;28;20062;-65
2021/05/14 04:04:06;;;;;;;6.03;2.70;;;19.40;48.80;;;;;;5095393;28;20020;-66
2021/05/14 04:06:32;;;;;;;5.45;2.75;;;19.40;48.80;;;;;;5094581;28;20059;-66
2021/05/14 04:08:57;;;;;;;3.75;1.80;;;19.40;48.90;;;;;;5093908;28;20016;-65
2021/05/14 04:16:48;;;;;;;4.68;2.45;;;19.40;48.80;;;;;;5096104;28;20409;-65
2021/05/14 04:19:14;;;;;;;6.57;2.70;;;19.40;48.80;;;;;;5094768;28;20028;-66
2021/05/14 04:21:40;;;;;;;5.65;2.50;;;19.40;48.80;;;;;;5094461;28;20040;-66
2021/05/14 04:24:07;;;;;;;5.20;2.42;;;19.40;48.80;;;;;;5094015;28;20042;-66
2021/05/14 04:26:32;;;;;;;4.70;2.30;;;19.40;48.80;;;;;;5095718;28;20032;-65
2021/05/14 04:28:58;;;;;;;4.60;2.03;;;19.40;48.80;;;;;;5097004;28;20020;-66
2021/05/14 04:31:23;;;;;;;4.68;2.40;;;19.40;48.80;;;;;;5094699;28;20032;-66
2021/05/14 04:33:49;;;;;;;7.00;2.92;;;19.40;48.80;;;;;;5095224;28;20029;-65
2021/05/14 04:36:15;;;;;;;4.65;2.20;;;19.40;48.80;;;;;;5095146;28;20020;-65
2021/05/14 04:38:41;;;;;;;5.40;2.50;;;19.40;48.80;;;;;;5095717;28;20065;-65
2021/05/14 04:41:06;;;;;;;4.93;2.35;;;19.40;48.80;;;;;;5097519;28;20036;-65
2021/05/14 04:43:32;;;;;;;4.60;2.50;;;19.40;48.80;;;;;;5099528;28;20024;-66
2021/05/14 04:45:57;;;;;;;5.30;2.60;;;19.40;48.80;;;;;;5097930;28;20023;-65
2021/05/14 04:48:23;;;;;;;4.68;2.28;;;19.40;48.80;;;;;;5098617;28;20070;-65
2021/05/14 04:50:48;;;;;;;5.15;2.63;;;19.40;48.80;;;;;;5098669;28;20028;-66
2021/05/14 04:53:15;;;;;;;4.75;2.50;;;19.40;48.80;;;;;;5097937;28;20027;-65
2021/05/14 04:55:41;;;;;;;4.68;2.28;;;19.40;48.80;;;;;;5099193;28;20024;-66
2021/05/14 04:58:07;;;;;;;5.43;2.50;;;19.40;48.80;;;;;;5097626;28;20028;-66
2021/05/14 05:00:32;;;;;;;5.53;2.70;;;19.40;48.80;;;;;;5097941;28;20024;-65
2021/05/14 05:03:00;;;;;;;4.72;2.30;;;19.40;48.80;;;;;;5098967;28;20077;-64
2021/05/14 05:05:26;;;;;;;4.25;2.17;;;19.40;48.80;;;;;;5098383;28;20169;-65
2021/05/14 05:07:52;;;;;;;5.55;2.03;;;19.40;48.90;;;;;;5097693;28;20059;-66
2021/05/14 05:10:19;;;;;;;4.90;2.47;;;19.40;48.80;;;;;;5100642;28;20081;-66
2021/05/14 05:12:45;;;;;;;4.55;2.35;;;19.50;48.90;;;;;;5097953;28;20048;-66
2021/05/14 05:15:11;;;;;;;4.72;2.20;;;19.50;48.90;;;;;;5098742;28;20020;-66
2021/05/14 05:17:38;;;;;;;4.75;2.67;;;19.40;48.90;;;;;;5097655;28;20028;-65
2021/05/14 05:20:05;;;;;;;4.68;2.08;;;19.40;48.90;;;;;;5097784;28;20065;-65
2021/05/14 05:22:30;;;;;;;4.50;2.33;;;19.40;48.90;;;;;;5097689;28;20100;-66
2021/05/14 05:24:56;;;;;;;4.90;2.33;;;19.50;48.80;;;;;;5097481;28;20074;-65
2021/05/14 05:27:21;;;;;;;3.72;2.13;;;19.40;48.80;;;;;;5098019;28;20024;-64
2021/05/14 05:29:47;;;;;;;4.68;2.45;;;19.40;48.90;;;;;;5097866;28;20024;-65
2021/05/14 05:32:12;;;;;;;4.55;2.08;;;19.40;48.90;;;;;;5097754;28;20031;-65
2021/05/14 05:34:38;;;;;;;4.80;2.40;;;19.40;48.90;;;;;;5097833;28;20028;-65
2021/05/14 05:37:03;;;;;;;4.68;2.42;;;19.40;48.90;;;;;;5097524;28;20395;-65
2021/05/14 05:39:29;;;;;;;3.80;2.03;;;19.50;48.90;;;;;;5097405;28;20024;-65
2021/05/14 05:41:55;;;;;;;4.40;2.20;;;19.40;49.00;;;;;;5098041;28;20036;-66
2021/05/14 05:44:20;;;;;;;4.57;2.00;;;19.40;49.00;;;;;;5098269;28;20012;-65
2021/05/14 05:46:46;;;;;;;5.30;1.98;;;19.40;48.90;;;;;;5096598;28;20028;-64
2021/05/14 05:49:12;;;;;;;4.80;2.50;;;19.40;48.90;;;;;;5098997;28;20084;-65
2021/05/14 05:51:37;;;;;;;4.43;2.40;;;19.50;48.90;;;;;;5096447;28;20404;-66
2021/05/14 05:54:03;;;;;;;4.25;2.55;;;19.50;48.90;;;;;;5095341;28;20143;-66
2021/05/14 05:56:29;;;;;;;5.47;2.40;;;19.50;48.90;;;;;;5096280;28;20028;-65
2021/05/14 05:58:54;;;;;;;4.65;2.22;;;19.50;48.90;;;;;;5096789;28;20023;-65
2021/05/14 06:01:20;;;;;;;3.95;2.03;;;19.50;48.90;;;;;;5096952;28;20036;-65
2021/05/14 06:03:48;;;;;;;4.72;2.22;;;19.50;48.90;;;;;;5097175;28;20371;-65
2021/05/14 06:06:13;;;;;;;3.83;2.03;;;19.50;48.90;;;;;;5097279;28;20422;-66
2021/05/14 06:08:39;;;;;;;3.85;2.08;;;19.50;48.90;;;;;;5097745;28;20035;-65
2021/05/14 06:11:04;;;;;;;4.15;2.10;;;19.50;48.90;;;;;;5097328;28;20069;-66
2021/05/14 06:13:32;;;;;;;4.63;2.10;;;19.50;48.90;;;;;;5095378;28;20044;-66
2021/05/14 06:16:01;;;;;;;3.47;2.00;;;19.50;49.00;;;;;;5096851;28;20111;-65
2021/05/14 06:18:31;;;;;;;4.88;2.35;;;19.50;48.90;;;;;;5097034;28;20034;-65
2021/05/14 06:20:59;;;;;;;4.38;2.05;;;19.50;49.00;;;;;;5095854;28;20055;-66
2021/05/14 06:23:24;;;;;;;5.03;2.00;;;19.50;48.90;;;;;;5095228;28;20063;-66
2021/05/14 06:25:50;;;;;;;5.20;2.50;;;19.50;49.00;;;;;;5095215;28;20040;-66
2021/05/14 06:28:17;;;;;;;4.97;2.33;;;19.50;49.00;;;;;;5095162;28;20036;-66
2021/05/14 06:30:43;;;;;;;3.97;2.10;;;19.50;49.00;;;;;;5095115;28;20388;-66
2021/05/14 06:33:08;;;;;;;4.82;2.70;;;19.50;49.00;;;;;;5095494;28;20028;-67
2021/05/14 06:35:35;;;;;;;5.40;2.78;;;19.50;49.10;;;;;;5095099;28;20032;-67
2021/05/14 06:38:00;;;;;;;5.38;2.38;;;19.50;49.00;;;;;;5095352;28;20044;-67
2021/05/14 06:40:26;;;;;;;4.25;2.17;;;19.50;49.00;;;;;;5094563;28;20056;-66
2021/05/14 06:42:51;;;;;;;5.28;2.42;;;19.50;49.00;;;;;;5095303;28;20383;-67
2021/05/14 06:45:17;;;;;;;4.82;2.42;;;19.50;49.00;;;;;;5094747;28;20464;-66
2021/05/14 06:47:42;;;;;;;3.55;1.70;;;19.50;49.00;;;;;;5094679;28;20023;-66
2021/05/14 06:50:08;;;;;;;4.93;2.45;;;19.50;49.00;;;;;;5094635;28;20028;-67
2021/05/14 06:52:35;;;;;;;4.15;2.22;;;19.50;49.00;;;;;;5094828;28;20028;-67
2021/05/14 06:55:07;;;;;;;3.90;2.10;;;19.50;49.00;;;;;;5095417;28;20455;-67
2021/05/14 06:57:33;;;;;;;4.65;2.45;;;19.50;49.00;;;;;;5105586;28;20345;-66
2021/05/14 06:59:58;;;;;;;4.32;2.40;;;19.50;48.90;;;;;;5105766;28;20062;-67
2021/05/14 07:02:24;;;;;;;4.63;2.40;;;19.50;48.90;;;;;;5104524;28;20048;-67
2021/05/14 07:04:50;;;;;;;4.28;2.17;;;19.50;48.90;;;;;;5102845;28;20024;-67
2021/05/14 07:07:17;;;;;;;3.38;1.88;;;19.50;48.80;;;;;;5105561;28;20086;-67
2021/05/14 07:09:43;;;;;;;4.45;2.10;;;19.60;48.80;;;;;;5104755;28;20016;-67
2021/05/14 07:12:09;;;;;;;4.68;1.75;;;19.60;48.80;;;;;;5104180;28;20028;-66
2021/05/14 07:14:34;;;;;;;4.30;2.03;;;19.60;48.80;;;;;;5102004;28;20035;-65
2021/05/14 07:17:00;;;;;;;3.17;1.80;;;19.70;48.50;;;;;;5094592;28;20020;-65
2021/05/14 07:19:27;;;;;;;4.18;2.08;;;19.70;48.60;;;;;;5094846;28;20035;-67
2021/05/14 07:21:53;;;;;;;3.55;1.92;;;19.80;48.50;;;;;;5096449;28;20106;-66
2021/05/14 07:24:18;;;;;;;4.20;2.13;;;19.70;48.70;;;;;;5093626;28;20075;-65
2021/05/14 07:26:44;;;;;;;4.10;1.98;;;19.70;48.80;;;;;;5094222;28;20375;-65
2021/05/14 07:29:09;;;;;;;4.38;2.15;;;19.60;48.80;;;;;;5093846;28;20115;-65
2021/05/14 07:31:35;;;;;;;3.22;1.70;;;19.60;48.90;;;;;;5094265;28;20486;-66
2021/05/14 07:34:00;;;;;;;3.80;1.88;;;19.60;48.80;;;;;;5093956;28;20063;-65
2021/05/14 07:36:26;;;;;;;4.22;2.00;;;19.60;48.80;;;;;;5092515;28;20024;-65
2021/05/14 07:38:53;;;;;;;3.75;1.83;;;19.70;48.80;;;;;;5093701;28;20019;-65
2021/05/14 07:41:19;;;;;;;3.78;2.08;;;19.60;48.80;;;;;;5093825;28;20058;-65
2021/05/14 07:43:44;;;;;;;4.22;2.15;;;19.70;48.90;;;;;;5093683;28;20024;-65
2021/05/14 07:46:10;;;;;;;4.75;2.33;;;19.60;48.90;;;;;;5093648;28;20056;-65
2021/05/14 07:48:36;;;;;;;3.25;1.90;;;19.60;48.80;;;;;;5093895;28;20097;-65
2021/05/14 07:51:02;;;;;;;3.83;1.95;;;19.60;48.80;;;;;;5093425;28;20165;-65
2021/05/14 07:53:27;;;;;;;3.95;1.90;;;19.70;48.80;;;;;;5093703;28;20016;-66
2021/05/14 07:55:53;;;;;;;3.85;2.10;;;19.70;48.90;;;;;;5093660;28;20020;-64
2021/05/14 07:58:20;;;;;;;3.20;1.95;;;19.70;48.80;;;;;;5093781;28;20356;-65
2021/05/14 08:00:48;;;;;;;4.75;2.38;;;19.70;48.90;;;;;;5093487;28;20028;-67
2021/05/14 08:03:14;;;;;;;3.80;1.92;;;19.70;48.90;;;;;;5093472;28;20059;-67
2021/05/14 08:05:39;;;;;;;4.85;2.60;;;19.70;48.80;;;;;;5093463;28;20017;-67
2021/05/14 08:08:10;;;;;;;4.00;2.30;;;19.70;48.70;;;;;;5093502;28;20040;-66
2021/05/14 08:10:36;;;;;;;4.32;2.28;;;19.80;48.70;;;;;;5093542;28;20430;-66
2021/05/14 08:13:02;;;;;;;5.75;2.63;;;19.80;48.70;;;;;;5093114;28;20020;-66
2021/05/14 08:15:28;;;;;;;4.22;2.25;;;19.80;48.70;;;;;;5094376;28;20074;-66
2021/05/14 08:17:54;;;;;;;4.68;2.10;;;19.80;48.70;;;;;;5097712;28;20024;-66
2021/05/14 08:20:20;;;;;;;4.45;2.45;;;19.80;48.70;;;;;;5097384;28;20076;-66
2021/05/14 08:22:46;;;;;;;4.07;2.10;;;19.80;48.80;;;;;;5097470;28;20028;-66
2021/05/14 08:25:13;;;;;;;4.03;2.30;;;19.80;48.80;;;;;;5097151;28;20048;-66
2021/05/14 08:27:38;;;;;;;5.55;2.50;;;19.80;48.80;;;;;;5097384;28;20028;-66
2021/05/14 08:30:07;;;;;;;4.07;2.22;;;19.80;48.80;;;;;;5097188;28;20096;-66
2021/05/14 08:32:33;;;;;;;4.88;2.33;;;19.80;48.70;;;;;;5097270;28;20039;-66
2021/05/14 08:34:58;;;;;;;5.35;2.60;;;19.80;48.70;;;;;;5097099;28;20024;-65
2021/05/14 08:37:24;;;;;;;3.83;2.30;;;19.80;48.70;;;;;;5097053;28;20560;-66
2021/05/14 08:39:50;;;;;;;5.53;2.95;;;19.80;48.70;;;;;;5097341;28;20071;-66
2021/05/14 08:42:18;;;;;;;5.60;2.30;;;19.80;48.70;;;;;;5097202;28;20119;-65
2021/05/14 08:44:44;;;;;;;4.53;2.40;;;19.80;48.60;;;;;;5097018;28;20024;-65
2021/05/14 08:47:13;;;;;;;4.63;2.60;;;19.80;48.70;;;;;;5097040;28;20369;-66
2021/05/14 08:49:39;;;;;;;3.75;2.03;;;19.80;48.70;;;;;;5096497;28;20020;-65
2021/05/14 08:52:08;;;;;;;4.97;2.60;;;19.80;48.70;;;;;;5096431;28;20034;-65
2021/05/14 08:54:35;;;;;;;3.92;2.33;;;19.80;48.70;;;;;;5096855;28;20056;-64
2021/05/14 08:57:01;;;;;;;4.68;2.58;;;19.80;48.60;;;;;;5096804;28;20024;-65
2021/05/14 08:59:26;;;;;;;4.30;2.42;;;19.90;48.60;;;;;;5096848;28;20541;-65
2021/05/14 09:01:52;;;;;;;5.25;2.60;;;19.90;48.60;;;;;;5096668;28;20047;-66
2021/05/14 09:04:19;;;;;;;5.18;2.58;;;19.90;48.50;;;;;;5096404;28;20085;-65
2021/05/14 09:06:46;;;;;;;4.90;2.40;;;19.90;48.60;;;;;;5096411;28;20024;-64
2021/05/14 09:09:14;;;;;;;4.28;2.42;;;19.90;48.60;;;;;;5096608;28;20020;-66
2021/05/14 09:11:47;;;;;;;4.35;2.28;;;19.90;48.50;;;;;;5096630;28;20032;-65
2021/05/14 09:14:38;;;;;;;4.80;2.63;;;19.90;48.60;;;;;;5096251;28;20021;-66
2021/05/14 09:17:10;;;;;;;5.25;2.30;;;19.90;48.50;;;;;;5096324;28;20028;-66
2021/05/14 09:19:38;;;;;;;4.95;2.60;;;19.90;48.50;;;;;;5095177;28;20426;-67
2021/05/14 09:22:24;;;;;;;4.78;2.45;;;19.90;48.50;;;;;;5096087;28;20570;-66
2021/05/14 09:24:57;;;;;;;4.25;2.30;;;19.90;48.50;;;;;;5096516;28;20430;-67
2021/05/14 09:27:29;;;;;;;5.13;2.45;;;19.90;48.50;;;;;;5095806;28;20016;-65
2021/05/14 09:29:59;;;;;;;5.38;2.60;;;20.00;48.40;;;;;;5095931;28;20028;-65
2021/05/14 09:32:28;;;;;;;4.95;2.75;;;20.00;48.40;;;;;;5096270;28;20487;-65
2021/05/14 09:35:00;;;;;;;4.75;2.50;;;20.00;48.40;;;;;;5096630;28;20016;-66
2021/05/14 09:37:27;;;;;;;5.07;2.55;;;20.00;48.40;;;;;;5095590;28;20024;-65
2021/05/14 09:40:17;;;;;;;5.28;2.67;;;20.00;48.40;;;;;;5095327;28;20023;-66
2021/05/14 09:42:44;;;;;;;4.60;2.50;;;20.00;48.40;;;;;;5095307;28;20119;-65
2021/05/14 09:45:21;;;;;;;5.45;2.40;;;20.00;48.30;;;;;;5095171;28;20069;-66
2021/05/14 09:48:14;;;;;;;4.38;2.42;;;20.00;48.30;;;;;;5095028;28;20036;-66
2021/05/14 09:50:42;;;;;;;4.22;2.20;;;20.00;48.30;;;;;;5095081;28;20017;-64
2021/05/14 09:53:16;;;;;;;4.45;2.28;;;20.00;48.30;;;;;;5094986;28;20030;-65
2021/05/14 09:55:50;;;;;;;4.88;2.80;;;20.00;48.30;;;;;;5094975;28;20035;-66
2021/05/14 09:58:26;;;;;;;4.18;2.30;;;20.00;48.30;;;;;;5095029;28;20028;-66
2021/05/14 10:00:52;;;;;;;4.70;2.33;;;20.00;48.20;;;;;;5094872;28;20112;-65
2021/05/14 10:03:19;;;;;;;4.25;2.15;;;20.10;48.20;;;;;;5094807;28;20055;-65
2021/05/14 10:05:46;;;;;;;4.75;2.40;;;20.00;48.20;;;;;;5093431;28;20149;-66
2021/05/14 10:08:15;;;;;;;5.22;2.42;;;20.10;48.10;;;;;;5094567;28;20024;-66
2021/05/14 10:10:41;;;;;;;4.43;2.10;;;20.10;48.10;;;;;;5093080;28;20019;-67
2021/05/14 10:13:08;;;;;;;4.38;2.53;;;20.10;48.10;;;;;;5094277;28;20456;-66
2021/05/14 10:15:35;;;;;;;4.85;2.25;;;20.10;48.10;;;;;;5093114;28;20392;-66
2021/05/14 10:18:03;;;;;;;3.67;2.05;;;20.00;48.20;;;;;;5094229;28;20020;-67
2021/05/14 10:20:30;;;;;;;4.70;2.58;;;20.00;48.10;;;;;;5094571;28;20050;-66
2021/05/14 10:22:57;;;;;;;4.47;2.22;;;20.10;48.10;;;;;;5094113;28;20062;-66
2021/05/14 10:25:38;;;;;;;4.80;2.40;;;20.10;48.10;;;;;;5094143;28;20518;-67
2021/05/14 10:28:21;;;;;;;4.90;2.45;;;20.00;48.10;;;;;;5094728;28;20056;-65
2021/05/14 10:31:06;;;;;;;4.38;2.13;;;20.10;48.10;;;;;;5095282;28;20032;-66
2021/05/14 10:33:42;;;;;;;3.92;2.42;;;20.10;48.10;;;;;;5095268;28;20023;-66
2021/05/14 10:36:14;;;;;;;4.15;2.10;;;20.10;48.00;;;;;;5094494;28;20028;-66
2021/05/14 10:38:41;;;;;;;4.07;2.17;;;20.10;48.00;;;;;;5094230;28;20120;-66
2021/05/14 10:41:46;;;;;;;4.57;2.60;;;20.10;48.00;;;;;;5094489;28;20411;-67
2021/05/14 10:44:11;;;;;;;4.43;2.20;;;20.10;48.00;;;;;;5060238;28;20039;-66
2021/05/14 10:46:37;;;;;;;4.28;2.20;;;20.10;48.00;;;;;;5094418;28;20032;-65
2021/05/14 10:49:12;;;;;;;3.72;2.10;;;20.10;48.00;;;;;;5094782;28;20115;-65
2021/05/14 10:51:58;;;;;;;4.70;2.50;;;20.10;48.00;;;;;;5094182;28;20043;-65
2021/05/14 10:54:39;;;;;;;3.38;1.92;;;20.20;47.90;;;;;;5094348;28;20035;-65
2021/05/14 10:57:05;;;;;;;3.33;1.70;;;20.20;47.80;;;;;;5094262;28;20028;-66
2021/05/14 10:59:38;;;;;;;4.47;1.98;;;20.20;47.70;;;;;;5094176;28;20128;-65
2021/05/14 11:02:32;;;;;;;3.72;2.22;;;20.30;47.60;;;;;;5094160;28;20075;-66
2021/05/14 11:04:59;;;;;;;4.00;2.00;;;20.30;47.50;;;;;;5094084;28;20031;-66
2021/05/14 11:07:41;;;;;;;3.30;1.80;;;20.40;47.50;;;;;;5093713;28;20027;-66
2021/05/14 11:10:13;;;;;;;3.97;2.00;;;20.40;47.40;;;;;;5094277;28;20471;-66
2021/05/14 11:12:43;;;;;;;3.67;2.15;;;20.40;47.50;;;;;;5094142;28;20169;-66
2021/05/14 11:15:14;;;;;;;9.68;2.67;;;20.30;47.60;;;;;;5094279;28;20016;-66
2021/05/14 11:17:40;;;;;;;4.88;1.95;;;20.30;47.60;;;;;;5093873;28;20414;-66
2021/05/14 11:20:21;;;;;;;4.95;1.85;;;20.40;47.50;;;;;;5093835;28;20020;-66
2021/05/14 11:22:47;;;;;;;4.00;2.05;;;20.40;47.40;;;;;;5075825;28;20510;-66
2021/05/14 11:25:14;;;;;;;5.25;2.58;;;20.50;47.30;;;;;;5093843;28;20056;-66
2021/05/14 11:27:45;;;;;;;3.28;1.83;;;20.50;47.20;;;;;;5094038;28;20103;-67
2021/05/14 11:30:13;;;;;;;3.97;1.75;;;20.50;47.30;;;;;;5094003;28;20016;-66
2021/05/14 11:32:44;;;;;;;3.90;2.00;;;20.40;47.40;;;;;;5093952;28;20376;-66
2021/05/14 11:35:17;;;;;;;3.50;2.10;;;20.40;47.40;;;;;;5093918;28;20030;-66
2021/05/14 11:37:53;;;;;;;4.00;2.03;;;20.40;47.30;;;;;;5093668;28;20031;-66
2021/05/14 11:40:20;;;;;;;4.75;2.17;;;20.50;47.30;;;;;;5093669;28;20023;-66
2021/05/14 11:42:48;;;;;;;4.53;2.08;;;20.50;47.30;;;;;;5093831;28;20071;-66
2021/05/14 11:45:17;;;;;;;4.20;2.30;;;20.50;47.30;;;;;;5094190;28;20040;-66
2021/05/14 11:47:45;;;;;;;3.85;1.88;;;20.50;47.00;;;;;;5093812;28;20475;-67
2021/05/14 11:50:18;;;;;;;5.00;2.05;;;20.60;47.10;;;;;;5094222;28;20066;-66
2021/05/14 11:52:44;;;;;;;4.35;1.83;;;20.60;47.00;;;;;;5093862;28;20097;-66
2021/05/14 11:55:15;;;;;;;3.10;1.63;;;20.70;46.90;;;;;;5093149;28;20028;-65
2021/05/14 11:57:49;;;;;;;3.35;1.75;;;20.70;46.80;;;;;;5093622;28;20020;-66
2021/05/14 12:00:16;;;;;;;4.85;2.30;;;20.70;46.80;;;;;;5093558;28;20032;-66
2021/05/14 12:02:45;;;;;;;4.40;1.92;;;20.70;46.90;;;;;;5093152;28;20024;-66
2021/05/14 12:05:13;;;;;;;3.75;1.88;;;20.70;46.90;;;;;;5093396;28;20051;-66
2021/05/14 12:07:41;;;;;;;3.45;1.83;;;20.80;46.70;;;;;;5092942;28;20384;-66
2021/05/14 12:10:10;;;;;;;2.97;1.58;;;20.80;46.80;;;;;;5093296;28;20027;-66
2021/05/14 12:12:40;;;;;;;3.42;1.95;;;20.90;46.70;;;;;;5093607;28;20028;-66
2021/05/14 12:15:12;;;;;;;3.75;1.98;;;20.80;46.70;;;;;;5093068;28;20073;-66
2021/05/14 12:17:38;;;;;;;4.55;1.90;;;20.80;46.80;;;;;;5093197;28;20028;-66
2021/05/14 12:20:23;;;;;;;2.88;1.70;;;21.00;46.50;;;;;;5093251;28;20103;-66
2021/05/14 12:22:49;;;;;;;2.63;1.58;;;21.00;46.40;;;;;;5093474;28;20032;-66
2021/05/14 12:25:15;;;;;;;3.35;1.80;;;21.10;46.30;;;;;;5093070;28;20048;-66
2021/05/14 12:27:42;;;;;;;4.72;1.98;;;21.10;46.20;;;;;;5093623;28;20028;-67
2021/05/14 12:30:10;;;;;;;4.05;1.80;;;21.10;46.20;;;;;;5093302;28;20020;-66
2021/05/14 12:32:36;;;;;;;3.80;1.90;;;21.20;46.10;;;;;;5093237;28;20047;-66
2021/05/14 12:35:07;;;;;;;3.28;1.80;;;21.30;46.00;;;;;;5093121;28;20028;-67
2021/05/14 12:37:33;;;;;;;4.78;1.52;;;21.30;46.00;;;;;;5093509;28;20123;-66
2021/05/14 12:39:58;;;;;;;3.10;1.58;;;21.30;45.90;;;;;;5093086;28;20066;-66
2021/05/14 12:42:25;;;;;;;3.38;1.70;;;21.30;46.00;;;;;;5093228;28;20067;-66
2021/05/14 12:44:52;;;;;;;3.55;1.83;;;21.20;46.00;;;;;;5091830;28;20479;-66
2021/05/14 12:47:20;;;;;;;3.08;1.60;;;21.20;46.00;;;;;;5092562;28;20032;-66
2021/05/14 12:49:49;;;;;;;2.78;1.60;;;21.20;46.00;;;;;;5092740;28;20357;-65
2021/05/14 12:52:25;;;;;;;3.45;1.67;;;21.30;45.90;;;;;;5092860;28;20020;-67
2021/05/14 12:54:52;;;;;;;2.80;1.70;;;21.50;45.70;;;;;;5093330;28;20021;-66
2021/05/14 12:57:25;;;;;;;3.47;1.80;;;21.30;45.90;;;;;;5093167;28;20020;-67